createdAt,value
2019-03-18T00:01:46.500Z,8.23
2019-03-18T00:04:18.112Z,8.25
2019-03-18T00:06:50.228Z,8.28
2019-03-18T00:09:21.879Z,8.33
2019-03-18T00:11:53.500Z,8.37
2019-03-18T00:14:25.087Z,8.38
2019-03-18T00:16:57.277Z,8.39
2019-03-18T00:19:28.866Z,8.39
2019-03-18T00:22:00.540Z,8.38
2019-03-18T00:24:32.068Z,8.40
2019-03-18T00:27:03.951Z,8.38
2019-03-18T00:29:35.537Z,8.36
2019-03-18T00:32:07.713Z,8.33
2019-03-18T00:34:39.372Z,8.31
2019-03-18T00:37:10.975Z,8.29
2019-03-18T00:39:42.608Z,8.25
2019-03-18T00:42:14.485Z,8.23
2019-03-18T00:44:46.092Z,8.21
2019-03-18T00:47:17.962Z,8.18
2019-03-18T00:49:49.561Z,8.15
2019-03-18T00:52:21.197Z,8.12
2019-03-18T00:54:53.026Z,8.09
2019-03-18T00:57:24.690Z,8.07
2019-03-18T00:59:56.364Z,8.03
2019-03-18T01:02:28.150Z,8.01
2019-03-18T01:04:59.741Z,7.99
2019-03-18T01:07:31.369Z,7.98
2019-03-18T01:10:02.984Z,7.95
2019-03-18T01:12:34.597Z,7.92
2019-03-18T01:15:06.409Z,7.90
2019-03-18T01:17:38.364Z,7.86
2019-03-18T01:20:10.219Z,7.85
2019-03-18T01:22:41.893Z,7.81
2019-03-18T01:25:13.888Z,7.78
2019-03-18T01:27:44.222Z,7.77
2019-03-18T01:30:13.423Z,7.79
2019-03-18T01:37:48.716Z,7.75
2019-03-18T01:40:20.312Z,7.74
2019-03-18T01:42:51.926Z,7.74
2019-03-18T01:45:23.555Z,7.74
2019-03-18T01:47:55.334Z,7.75
2019-03-18T01:50:26.907Z,7.76
2019-03-18T01:52:58.869Z,7.75
2019-03-18T01:55:30.488Z,7.72
2019-03-18T01:58:02.327Z,7.71
2019-03-18T02:00:33.961Z,7.69
2019-03-18T02:03:07.145Z,7.69
2019-03-18T02:05:39.010Z,7.70
2019-03-18T02:08:10.800Z,7.69
2019-03-18T02:10:42.479Z,7.68
2019-03-18T02:13:14.092Z,7.66
2019-03-18T02:15:53.297Z,7.66
2019-03-18T02:18:19.030Z,7.65
2019-03-18T02:20:50.598Z,7.63
2019-03-18T02:23:22.505Z,7.62
2019-03-18T02:25:54.291Z,7.61
2019-03-18T02:28:26.075Z,7.60
2019-03-18T02:30:58.245Z,7.58
2019-03-18T02:33:30.228Z,7.57
2019-03-18T02:36:01.917Z,7.56
2019-03-18T02:38:33.520Z,7.57
2019-03-18T02:41:05.480Z,7.57
2019-03-18T02:43:37.067Z,7.57
2019-03-18T02:46:10.652Z,7.57
2019-03-18T02:48:42.120Z,7.57
2019-03-18T02:51:13.728Z,7.59
2019-03-18T02:53:45.297Z,7.59
2019-03-18T02:56:17.035Z,7.56
2019-03-18T02:58:48.700Z,7.54
2019-03-18T03:01:20.471Z,7.54
2019-03-18T03:03:52.131Z,7.53
2019-03-18T03:06:23.749Z,7.57
2019-03-18T03:08:55.309Z,7.57
2019-03-18T03:11:26.963Z,7.61
2019-03-18T03:13:58.537Z,7.65
2019-03-18T03:16:30.301Z,7.67
2019-03-18T03:19:02.038Z,7.71
2019-03-18T03:21:33.705Z,7.73
2019-03-18T03:24:05.271Z,7.75
2019-03-18T03:26:36.872Z,7.80
2019-03-18T03:29:08.719Z,7.84
2019-03-18T03:31:40.455Z,7.88
2019-03-18T03:34:13.832Z,7.92
2019-03-18T03:36:45.418Z,7.89
2019-03-18T03:39:16.993Z,7.97
2019-03-18T03:41:48.565Z,7.99
2019-03-18T03:44:20.182Z,8.02
2019-03-18T03:46:51.764Z,8.04
2019-03-18T03:49:23.493Z,8.06
2019-03-18T03:51:55.083Z,8.08
2019-03-18T03:54:26.704Z,8.06
2019-03-18T03:56:58.262Z,8.03
2019-03-18T03:59:29.878Z,8.00
2019-03-18T04:02:01.945Z,7.99
2019-03-18T04:04:34.134Z,7.98
2019-03-18T04:07:05.865Z,7.99
2019-03-18T04:09:37.517Z,7.97
2019-03-18T04:12:09.073Z,7.97
2019-03-18T04:14:40.858Z,7.97
2019-03-18T04:17:12.561Z,7.97
2019-03-18T04:19:44.613Z,7.99
2019-03-18T04:22:16.215Z,7.98
2019-03-18T04:24:48.008Z,7.97
2019-03-18T04:27:19.627Z,7.97
2019-03-18T04:29:51.566Z,7.99
2019-03-18T04:32:23.176Z,8.02
2019-03-18T04:34:54.930Z,8.04
2019-03-18T04:37:26.505Z,8.06
2019-03-18T04:39:58.118Z,8.03
2019-03-18T04:42:29.983Z,8.01
2019-03-18T04:45:01.672Z,8.00
2019-03-18T04:47:33.341Z,7.99
2019-03-18T04:50:05.335Z,7.99
2019-03-18T04:52:36.981Z,7.98
2019-03-18T04:55:09.043Z,7.96
2019-03-18T04:57:40.622Z,7.98
2019-03-18T05:00:12.613Z,8.00
2019-03-18T05:02:44.267Z,8.01
2019-03-18T05:05:15.941Z,8.03
2019-03-18T05:07:47.551Z,8.06
2019-03-18T05:10:19.342Z,8.08
2019-03-18T05:12:50.917Z,8.08
2019-03-18T05:15:22.514Z,8.08
2019-03-18T05:17:54.090Z,8.03
2019-03-18T05:20:26.060Z,7.99
2019-03-18T05:22:57.962Z,7.93
2019-03-18T05:25:30.119Z,7.88
2019-03-18T05:28:01.951Z,7.84
2019-03-18T05:30:33.515Z,7.80
2019-03-18T05:33:05.125Z,7.75
2019-03-18T05:35:36.847Z,7.69
2019-03-18T05:38:08.605Z,7.66
2019-03-18T05:40:40.227Z,7.65
2019-03-18T05:43:11.961Z,7.62
2019-03-18T05:45:43.604Z,7.61
2019-03-18T05:48:15.295Z,7.61
2019-03-18T05:50:47.055Z,7.61
2019-03-18T05:53:18.674Z,7.63
2019-03-18T05:55:50.351Z,7.66
2019-03-18T05:58:22.015Z,7.68
2019-03-18T06:00:53.761Z,7.71
2019-03-18T06:03:25.351Z,7.74
2019-03-18T06:05:56.948Z,7.77
2019-03-18T06:08:28.632Z,7.79
2019-03-18T06:11:00.259Z,7.85
2019-03-18T06:13:31.859Z,7.91
2019-03-18T06:16:03.476Z,7.94
2019-03-18T06:18:35.155Z,7.99
2019-03-18T06:21:06.784Z,8.04
2019-03-18T06:23:38.581Z,8.17
2019-03-18T06:26:10.160Z,8.29
2019-03-18T06:28:40.685Z,8.43
2019-03-18T06:31:09.916Z,8.51
2019-03-18T06:33:41.508Z,8.54
2019-03-18T06:36:13.233Z,8.55
2019-03-18T06:38:45.037Z,8.58
2019-03-18T06:41:16.624Z,8.59
2019-03-18T06:43:48.242Z,8.57
2019-03-18T06:46:19.838Z,8.55
2019-03-18T06:48:51.437Z,8.57
2019-03-18T06:51:23.053Z,8.58
2019-03-18T06:53:54.745Z,8.61
2019-03-18T06:56:26.514Z,8.66
2019-03-18T06:58:58.129Z,8.67
2019-03-18T07:01:29.729Z,8.66
2019-03-18T07:04:01.363Z,8.69
2019-03-18T07:06:33.012Z,8.69
2019-03-18T07:09:05.375Z,8.70
2019-03-18T07:11:37.185Z,8.71
2019-03-18T07:14:08.824Z,8.68
2019-03-18T07:16:40.751Z,8.69
2019-03-18T07:19:12.392Z,8.70
2019-03-18T07:21:44.142Z,8.74
2019-03-18T07:24:15.805Z,8.79
2019-03-18T07:26:47.621Z,8.86
2019-03-18T07:29:18.535Z,8.97
2019-03-18T07:31:47.961Z,9.07
2019-03-18T07:34:19.595Z,9.14
2019-03-18T07:36:51.217Z,9.21
2019-03-18T07:39:23.050Z,9.26
2019-03-18T07:41:54.926Z,9.29
2019-03-18T07:44:26.549Z,9.31
2019-03-18T07:46:58.249Z,9.33
2019-03-18T07:49:29.839Z,9.34
2019-03-18T07:52:02.136Z,9.40
2019-03-18T07:54:33.761Z,9.41
2019-03-18T07:57:05.546Z,9.43
2019-03-18T07:59:37.155Z,9.47
2019-03-18T08:02:08.923Z,9.53
2019-03-18T08:04:40.530Z,9.58
2019-03-18T08:07:12.171Z,9.65
2019-03-18T08:09:43.796Z,9.69
2019-03-18T08:12:15.415Z,9.71
2019-03-18T08:14:47.043Z,9.75
2019-03-18T08:17:18.711Z,9.80
2019-03-18T08:19:50.438Z,9.89
2019-03-18T08:22:22.110Z,9.99
2019-03-18T08:24:54.069Z,10.08
2019-03-18T08:27:25.693Z,10.13
2019-03-18T08:29:57.761Z,10.18
2019-03-18T08:32:29.543Z,10.26
2019-03-18T08:35:01.309Z,10.36
2019-03-18T08:37:33.010Z,10.45
2019-03-18T08:40:05.188Z,10.60
2019-03-18T08:42:36.882Z,10.75
2019-03-18T08:45:08.761Z,10.89
2019-03-18T08:47:40.502Z,10.98
2019-03-18T08:50:12.928Z,11.07
2019-03-18T08:52:44.852Z,11.15
2019-03-18T08:55:16.543Z,11.21
2019-03-18T08:57:48.311Z,11.27
2019-03-18T09:00:20.460Z,11.36
2019-03-18T09:02:52.110Z,11.39
2019-03-18T09:05:23.960Z,11.35
2019-03-18T09:07:55.599Z,11.33
2019-03-18T09:10:27.350Z,11.33
2019-03-18T09:12:58.984Z,11.34
2019-03-18T09:15:30.665Z,11.35
2019-03-18T09:18:02.439Z,11.33
2019-03-18T09:20:34.230Z,11.33
2019-03-18T09:23:05.860Z,11.36
2019-03-18T09:25:37.481Z,11.36
2019-03-18T09:28:09.713Z,11.31
2019-03-18T09:30:41.355Z,11.26
2019-03-18T09:33:12.962Z,11.24
2019-03-18T09:35:44.777Z,11.25
2019-03-18T09:38:16.533Z,11.28
2019-03-18T09:40:48.163Z,11.30
2019-03-18T09:43:19.878Z,11.33
2019-03-18T09:45:54.394Z,11.39
2019-03-18T09:48:24.835Z,11.44
2019-03-18T09:50:56.625Z,11.48
2019-03-18T09:53:28.301Z,11.58
2019-03-18T09:55:59.939Z,11.71
2019-03-18T09:58:31.547Z,11.84
2019-03-18T10:01:03.277Z,11.96
2019-03-18T10:03:34.966Z,12.03
2019-03-18T10:06:06.760Z,12.07
2019-03-18T10:08:38.428Z,12.11
2019-03-18T10:11:10.153Z,12.15
2019-03-18T10:13:42.010Z,12.17
2019-03-18T10:16:13.896Z,12.19
2019-03-18T10:18:45.591Z,12.19
2019-03-18T10:21:17.353Z,12.17
2019-03-18T10:23:49.055Z,12.14
2019-03-18T10:26:20.821Z,12.09
2019-03-18T10:28:52.628Z,12.05
2019-03-18T10:31:24.402Z,12.03
2019-03-18T10:33:56.050Z,12.06
2019-03-18T10:36:27.764Z,12.15
2019-03-18T10:38:59.349Z,12.27
2019-03-18T10:41:30.972Z,12.35
2019-03-18T10:44:03.854Z,12.38
2019-03-18T10:46:35.480Z,12.34
2019-03-18T10:49:07.546Z,12.27
2019-03-18T10:51:39.098Z,12.19
2019-03-18T10:54:10.901Z,12.11
2019-03-18T10:56:42.517Z,12.16
2019-03-18T10:59:14.161Z,12.22
2019-03-18T11:01:45.843Z,12.36
2019-03-18T11:09:20.485Z,12.69
2019-03-18T11:11:52.249Z,12.79
2019-03-18T11:14:23.950Z,12.81
2019-03-18T11:16:55.590Z,12.83
2019-03-18T11:19:27.560Z,12.88
2019-03-18T11:21:59.189Z,12.94
2019-03-18T11:24:30.947Z,13.02
2019-03-18T11:27:02.606Z,13.10
2019-03-18T11:29:34.677Z,13.18
2019-03-18T11:32:06.713Z,13.26
2019-03-18T11:34:38.654Z,13.42
2019-03-18T11:37:10.249Z,13.50
2019-03-18T11:39:42.356Z,13.56
2019-03-18T11:42:14.076Z,13.60
2019-03-18T11:44:45.728Z,13.60
2019-03-18T11:47:17.398Z,13.51
2019-03-18T11:49:49.065Z,13.45
2019-03-18T11:52:20.796Z,13.40
2019-03-18T11:54:52.767Z,13.43
2019-03-18T11:57:24.391Z,13.46
2019-03-18T11:59:56.032Z,13.47
2019-03-18T12:02:28.197Z,13.42
2019-03-18T12:04:59.973Z,13.42
2019-03-18T12:07:31.602Z,13.40
2019-03-18T12:10:03.289Z,13.42
2019-03-18T12:12:35.313Z,13.44
2019-03-18T12:15:08.015Z,13.45
2019-03-18T12:17:39.685Z,13.49
2019-03-18T12:20:23.759Z,13.56
2019-03-18T12:22:45.908Z,13.63
2019-03-18T12:25:17.578Z,13.69
2019-03-18T12:27:49.625Z,13.71
2019-03-18T12:30:21.687Z,13.72
2019-03-18T12:32:53.342Z,13.69
2019-03-18T12:35:25.493Z,13.67
2019-03-18T12:37:57.560Z,13.63
2019-03-18T12:40:29.514Z,13.55
2019-03-18T12:43:01.519Z,13.42
2019-03-18T12:45:33.176Z,13.31
2019-03-18T12:48:04.732Z,13.21
2019-03-18T12:50:53.879Z,13.10
2019-03-18T12:53:09.859Z,13.03
2019-03-18T12:55:41.507Z,12.89
2019-03-18T12:58:13.812Z,12.81
2019-03-18T13:00:45.488Z,12.81
2019-03-18T13:03:17.123Z,12.88
2019-03-18T13:05:48.788Z,12.88
2019-03-18T13:08:20.424Z,12.81
2019-03-18T13:10:52.091Z,12.78
2019-03-18T13:13:24.528Z,12.84
2019-03-18T13:15:56.166Z,12.94
2019-03-18T13:18:27.878Z,12.98
2019-03-18T13:21:07.709Z,13.00
2019-03-18T13:23:32.917Z,13.01
2019-03-18T13:26:04.660Z,13.02
2019-03-18T13:28:37.252Z,13.02
2019-03-18T13:31:09.118Z,12.99
2019-03-18T13:33:41.766Z,12.96
2019-03-18T13:36:13.493Z,12.93
2019-03-18T13:38:45.299Z,12.92
2019-03-18T13:41:17.056Z,12.92
2019-03-18T13:43:49.048Z,12.92
2019-03-18T13:46:20.657Z,12.93
2019-03-18T13:48:52.422Z,12.94
2019-03-18T13:51:24.062Z,12.96
2019-03-18T13:53:55.782Z,13.00
2019-03-18T13:56:27.614Z,13.04
2019-03-18T13:59:00.104Z,13.07
2019-03-18T14:01:31.779Z,13.10
2019-03-18T14:04:03.416Z,13.11
2019-03-18T14:06:35.243Z,13.11
2019-03-18T14:09:09.064Z,13.15
2019-03-18T14:11:40.796Z,13.18
2019-03-18T14:14:13.115Z,13.18
2019-03-18T14:16:44.756Z,13.21
2019-03-18T14:19:16.421Z,13.23
2019-03-18T14:21:48.042Z,13.26
2019-03-18T14:24:19.724Z,13.28
2019-03-18T14:26:51.426Z,13.30
2019-03-18T14:29:24.069Z,13.33
2019-03-18T14:31:55.768Z,13.32
2019-03-18T14:34:27.451Z,13.34
2019-03-18T14:36:59.329Z,13.36
2019-03-18T14:39:31.212Z,13.36
2019-03-18T14:42:02.875Z,13.36
2019-03-18T14:44:34.781Z,13.37
2019-03-18T14:47:06.981Z,13.40
2019-03-18T14:49:38.709Z,13.45
2019-03-18T14:52:10.423Z,13.51
2019-03-18T14:54:42.168Z,13.50
2019-03-18T14:57:13.918Z,13.61
2019-03-18T14:59:45.524Z,13.64
2019-03-18T15:02:17.521Z,13.63
2019-03-18T15:04:49.270Z,13.63
2019-03-18T15:07:20.995Z,13.65
2019-03-18T15:09:52.639Z,13.69
2019-03-18T15:12:24.328Z,13.74
2019-03-18T15:14:56.023Z,13.81
2019-03-18T15:17:28.982Z,13.84
2019-03-18T15:20:00.641Z,13.86
2019-03-18T15:22:32.236Z,13.90
2019-03-18T15:25:03.914Z,13.91
2019-03-18T15:27:35.567Z,13.95
2019-03-18T15:30:11.396Z,13.99
2019-03-18T15:32:43.771Z,14.02
2019-03-18T15:35:15.622Z,14.04
2019-03-18T15:37:47.605Z,14.02
2019-03-18T15:40:19.394Z,13.79
2019-03-18T15:42:51.088Z,13.50
2019-03-18T15:45:22.712Z,13.30
2019-03-18T15:47:54.875Z,13.11
2019-03-18T15:50:26.611Z,12.92
2019-03-18T15:52:58.502Z,12.74
2019-03-18T15:55:30.297Z,12.63
2019-03-18T15:58:02.817Z,12.49
2019-03-18T16:00:34.547Z,12.42
2019-03-18T16:03:06.264Z,12.35
2019-03-18T16:05:38.427Z,12.27
2019-03-18T16:08:10.191Z,12.21
2019-03-18T16:10:42.226Z,12.19
2019-03-18T16:13:13.950Z,12.20
2019-03-18T16:15:45.763Z,12.20
2019-03-18T16:18:17.457Z,12.20
2019-03-18T16:20:49.102Z,12.22
2019-03-18T16:23:21.310Z,12.30
2019-03-18T16:25:53.102Z,12.38
2019-03-18T16:28:24.841Z,12.46
2019-03-18T16:30:57.014Z,12.53
2019-03-18T16:33:28.953Z,12.57
2019-03-18T16:36:00.624Z,12.62
2019-03-18T16:38:32.714Z,12.62
2019-03-18T16:41:04.369Z,12.63
2019-03-18T16:43:36.207Z,12.62
2019-03-18T16:46:07.998Z,12.59
2019-03-18T16:48:39.690Z,12.56
2019-03-18T16:51:11.501Z,12.50
2019-03-18T16:53:43.206Z,12.51
2019-03-18T16:56:15.392Z,12.48
2019-03-18T16:58:47.276Z,12.44
2019-03-18T17:01:18.970Z,12.43
2019-03-18T17:03:50.628Z,12.42
2019-03-18T17:06:22.669Z,12.42
2019-03-18T17:08:54.457Z,12.43
2019-03-18T17:11:26.683Z,12.45
2019-03-18T17:13:58.337Z,12.47
2019-03-18T17:16:30.564Z,12.48
2019-03-18T17:19:02.531Z,12.50
2019-03-18T17:21:34.788Z,12.50
2019-03-18T17:24:06.619Z,12.49
2019-03-18T17:26:38.835Z,12.47
2019-03-18T17:29:11.151Z,12.43
2019-03-18T17:31:42.982Z,12.39
2019-03-18T17:34:14.667Z,12.38
2019-03-18T17:36:46.392Z,12.28
2019-03-18T17:39:18.067Z,11.95
2019-03-18T17:41:50.137Z,11.51
2019-03-18T17:44:21.903Z,11.11
2019-03-18T17:46:53.955Z,10.84
2019-03-18T17:49:25.717Z,10.60
2019-03-18T17:51:57.423Z,10.38
2019-03-18T17:54:29.684Z,10.25
2019-03-18T17:57:07.066Z,10.19
2019-03-18T17:59:35.286Z,10.18
2019-03-18T18:02:07.587Z,10.21
2019-03-18T18:04:39.370Z,10.23
2019-03-18T18:07:11.312Z,10.22
2019-03-18T18:09:43.508Z,10.22
2019-03-18T18:12:15.191Z,10.21
2019-03-18T18:14:46.908Z,10.18
2019-03-18T18:17:19.079Z,10.11
2019-03-18T18:19:51.546Z,10.07
2019-03-18T18:22:23.333Z,10.05
2019-03-18T18:24:55.155Z,10.03
2019-03-18T18:27:26.965Z,10.02
2019-03-18T18:29:59.006Z,10.03
2019-03-18T18:32:30.870Z,10.02
2019-03-18T18:35:03.482Z,10.02
2019-03-18T18:37:35.191Z,10.03
2019-03-18T18:40:09.742Z,9.97
2019-03-18T18:42:41.698Z,9.86
2019-03-18T18:45:14.564Z,9.78
2019-03-18T18:47:46.647Z,9.70
2019-03-18T18:50:19.283Z,9.66
2019-03-18T18:52:51.305Z,9.63
2019-03-18T18:55:22.981Z,9.60
2019-03-18T18:57:55.002Z,9.57
2019-03-18T19:00:26.919Z,9.49
2019-03-18T19:02:58.667Z,9.39
2019-03-18T19:05:31.110Z,9.32
2019-03-18T19:08:02.804Z,9.23
2019-03-18T19:10:34.536Z,9.15
2019-03-18T19:13:06.271Z,9.11
2019-03-18T19:15:38.483Z,9.11
2019-03-18T19:18:10.234Z,9.13
2019-03-18T19:20:42.497Z,9.18
2019-03-18T19:23:14.360Z,9.24
2019-03-18T19:25:46.594Z,9.27
2019-03-18T19:28:18.427Z,9.28
2019-03-18T19:30:50.454Z,9.31
2019-03-18T19:33:22.316Z,9.25
2019-03-18T19:35:54.407Z,9.18
2019-03-18T19:38:26.178Z,9.13
2019-03-18T19:40:57.942Z,9.10
2019-03-18T19:43:29.898Z,9.09
2019-03-18T19:46:01.625Z,9.08
2019-03-18T19:48:34.455Z,9.07
2019-03-18T19:51:07.101Z,9.07
2019-03-18T19:53:48.648Z,9.09
2019-03-18T19:56:13.425Z,9.09
2019-03-18T19:58:45.243Z,9.08
2019-03-18T20:01:17.121Z,9.05
2019-03-18T20:03:49.218Z,9.00
2019-03-18T20:06:21.186Z,8.98
2019-03-18T20:08:53.515Z,8.94
2019-03-18T20:11:25.382Z,8.90
2019-03-18T20:13:57.192Z,8.84
2019-03-18T20:16:28.866Z,8.77
2019-03-18T20:19:00.748Z,8.69
2019-03-18T20:21:32.506Z,8.62
2019-03-18T20:24:04.959Z,8.56
2019-03-18T20:26:36.800Z,8.50
2019-03-18T20:29:09.082Z,8.48
2019-03-18T20:31:40.861Z,8.51
2019-03-18T20:34:12.776Z,8.53
2019-03-18T20:36:44.774Z,8.56
2019-03-18T20:39:16.914Z,8.57
2019-03-18T20:41:48.677Z,8.51
2019-03-18T20:44:20.541Z,8.41
2019-03-18T20:46:52.585Z,8.35
2019-03-18T20:49:24.515Z,8.34
2019-03-18T20:51:56.221Z,8.28
2019-03-18T20:54:28.435Z,8.25
2019-03-18T20:57:00.306Z,8.24
2019-03-18T20:59:32.257Z,8.20
2019-03-18T21:02:04.458Z,8.18
2019-03-18T21:04:36.264Z,8.16
2019-03-18T21:07:08.025Z,8.15
2019-03-18T21:09:40.373Z,8.17
2019-03-18T21:12:12.095Z,8.19
2019-03-18T21:14:44.347Z,8.22
2019-03-18T21:17:16.364Z,8.24
2019-03-18T21:19:48.639Z,8.25
2019-03-18T21:22:20.422Z,8.30
2019-03-18T21:24:52.852Z,8.32
2019-03-18T21:27:24.712Z,8.29
2019-03-18T21:29:57.004Z,8.24
2019-03-18T21:32:28.684Z,8.18
2019-03-18T21:35:00.413Z,8.17
2019-03-18T21:37:32.142Z,8.21
2019-03-18T21:40:04.665Z,8.23
2019-03-18T21:42:37.088Z,8.27
2019-03-18T21:45:10.950Z,8.30
2019-03-18T21:47:42.651Z,8.32
2019-03-18T21:50:15.044Z,8.33
2019-03-18T21:52:47.065Z,8.31
2019-03-18T21:55:20.155Z,8.29
2019-03-18T21:57:51.976Z,8.23
2019-03-18T22:00:23.782Z,8.16
2019-03-18T22:02:55.432Z,8.13
2019-03-18T22:05:27.178Z,8.07
2019-03-18T22:07:58.940Z,8.07
2019-03-18T22:10:30.609Z,8.11
2019-03-18T22:13:02.737Z,8.16
2019-03-18T22:15:35.004Z,8.15
2019-03-18T22:18:06.895Z,8.11
2019-03-18T22:20:38.782Z,8.08
2019-03-18T22:23:10.433Z,8.08
2019-03-18T22:25:42.279Z,8.13
2019-03-18T22:28:14.409Z,8.17
2019-03-18T22:30:46.384Z,8.19
2019-03-18T22:33:18.028Z,8.23
2019-03-18T22:35:49.680Z,8.24
2019-03-18T22:38:21.334Z,8.26
2019-03-18T22:40:53.186Z,8.29
2019-03-18T22:43:25.255Z,8.33
2019-03-18T22:45:56.897Z,8.40
2019-03-18T22:48:28.842Z,8.42
2019-03-18T22:51:00.840Z,8.40
2019-03-18T22:53:32.630Z,8.37
2019-03-18T22:56:04.317Z,8.32
2019-03-18T22:58:36.789Z,8.30
2019-03-18T23:01:13.962Z,8.31
2019-03-18T23:03:45.591Z,8.34
2019-03-18T23:06:17.596Z,8.39
2019-03-18T23:08:49.535Z,8.41
2019-03-18T23:11:21.247Z,8.39
2019-03-18T23:13:53.457Z,8.35
2019-03-18T23:16:25.163Z,8.30
2019-03-18T23:18:57.659Z,8.30
2019-03-18T23:21:29.359Z,8.34
2019-03-18T23:24:00.941Z,8.37
2019-03-18T23:26:32.944Z,8.40
2019-03-18T23:29:04.638Z,8.42
2019-03-18T23:31:38.087Z,8.46
2019-03-18T23:34:09.742Z,8.50
2019-03-18T23:36:41.409Z,8.56
2019-03-18T23:39:13.068Z,8.58
2019-03-18T23:41:44.729Z,8.60
2019-03-18T23:44:16.335Z,8.61
2019-03-18T23:46:48.430Z,8.64
2019-03-18T23:49:20.232Z,8.67
2019-03-18T23:51:52.270Z,8.68
2019-03-18T23:54:23.896Z,8.71
2019-03-18T23:56:55.687Z,8.72
2019-03-18T23:59:27.373Z,8.73
